sensor_id;sensor_type;location;lat;lon;timestamp;P1;durP1;ratioP1;P2;durP2;ratioP2
18887;SDS011;9576;47.792;9.628;2022-11-04T00:00:02;1.50;;;1.40;;
18887;SDS011;9576;47.792;9.628;2022-11-04T00:03:06;4.40;;;1.50;;
18887;SDS011;9576;47.792;9.628;2022-11-04T00:06:08;1.73;;;1.27;;
18887;SDS011;9576;47.792;9.628;2022-11-04T00:09:11;2.85;;;1.58;;
18887;SDS011;9576;47.792;9.628;2022-11-04T00:12:15;2.50;;;1.42;;
18887;SDS011;9576;47.792;9.628;2022-11-04T00:15:25;1.27;;;1.00;;
18887;SDS011;9576;47.792;9.628;2022-11-04T00:18:45;1.23;;;0.93;;
18887;SDS011;9576;47.792;9.628;2022-11-04T00:21:47;2.28;;;1.17;;
18887;SDS011;9576;47.792;9.628;2022-11-04T00:25:07;1.67;;;1.10;;
18887;SDS011;9576;47.792;9.628;2022-11-04T00:28:27;0.98;;;0.63;;
18887;SDS011;9576;47.792;9.628;2022-11-04T00:31:44;1.40;;;0.65;;
18887;SDS011;9576;47.792;9.628;2022-11-04T00:35:05;0.70;;;0.60;;
18887;SDS011;9576;47.792;9.628;2022-11-04T00:38:08;1.42;;;0.85;;
18887;SDS011;9576;47.792;9.628;2022-11-04T00:41:10;0.50;;;0.50;;
18887;SDS011;9576;47.792;9.628;2022-11-04T00:44:25;1.90;;;0.75;;
18887;SDS011;9576;47.792;9.628;2022-11-04T00:47:27;0.98;;;0.63;;
18887;SDS011;9576;47.792;9.628;2022-11-04T00:50:31;3.50;;;0.68;;
18887;SDS011;9576;47.792;9.628;2022-11-04T00:53:33;17.23;;;1.35;;
18887;SDS011;9576;47.792;9.628;2022-11-04T00:56:36;0.68;;;0.52;;
18887;SDS011;9576;47.792;9.628;2022-11-04T00:59:38;0.68;;;0.68;;
18887;SDS011;9576;47.792;9.628;2022-11-04T01:02:40;2.55;;;1.08;;
18887;SDS011;9576;47.792;9.628;2022-11-04T01:05:44;0.82;;;0.77;;
18887;SDS011;9576;47.792;9.628;2022-11-04T01:08:46;0.60;;;0.60;;
18887;SDS011;9576;47.792;9.628;2022-11-04T01:11:48;1.35;;;0.90;;
18887;SDS011;9576;47.792;9.628;2022-11-04T01:14:50;1.15;;;0.57;;
18887;SDS011;9576;47.792;9.628;2022-11-04T01:17:52;0.63;;;0.50;;
18887;SDS011;9576;47.792;9.628;2022-11-04T01:20:59;0.55;;;0.52;;
18887;SDS011;9576;47.792;9.628;2022-11-04T01:24:01;1.65;;;0.70;;
18887;SDS011;9576;47.792;9.628;2022-11-04T01:27:03;0.82;;;0.75;;
18887;SDS011;9576;47.792;9.628;2022-11-04T01:30:06;1.33;;;0.90;;
18887;SDS011;9576;47.792;9.628;2022-11-04T01:33:09;2.17;;;0.95;;
18887;SDS011;9576;47.792;9.628;2022-11-04T01:36:12;1.17;;;0.65;;
18887;SDS011;9576;47.792;9.628;2022-11-04T01:39:14;0.55;;;0.52;;
18887;SDS011;9576;47.792;9.628;2022-11-04T01:42:19;0.60;;;0.45;;
18887;SDS011;9576;47.792;9.628;2022-11-04T01:45:21;0.70;;;0.70;;
18887;SDS011;9576;47.792;9.628;2022-11-04T01:48:24;1.38;;;0.77;;
18887;SDS011;9576;47.792;9.628;2022-11-04T01:51:31;6.05;;;0.57;;
18887;SDS011;9576;47.792;9.628;2022-11-04T01:54:38;2.28;;;0.52;;
18887;SDS011;9576;47.792;9.628;2022-11-04T01:57:41;7.28;;;0.52;;
18887;SDS011;9576;47.792;9.628;2022-11-04T02:00:47;0.73;;;0.70;;
18887;SDS011;9576;47.792;9.628;2022-11-04T02:03:50;0.75;;;0.52;;
18887;SDS011;9576;47.792;9.628;2022-11-04T02:06:58;1.55;;;0.65;;
18887;SDS011;9576;47.792;9.628;2022-11-04T02:10:02;0.28;;;0.28;;
18887;SDS011;9576;47.792;9.628;2022-11-04T02:13:04;1.55;;;0.63;;
18887;SDS011;9576;47.792;9.628;2022-11-04T02:16:14;0.40;;;0.40;;
18887;SDS011;9576;47.792;9.628;2022-11-04T02:19:30;2.45;;;0.90;;
18887;SDS011;9576;47.792;9.628;2022-11-04T02:22:57;0.67;;;0.67;;
18887;SDS011;9576;47.792;9.628;2022-11-04T02:26:40;0.55;;;0.40;;
18887;SDS011;9576;47.792;9.628;2022-11-04T02:30:12;0.77;;;0.68;;
18887;SDS011;9576;47.792;9.628;2022-11-04T02:33:18;0.40;;;0.40;;
18887;SDS011;9576;47.792;9.628;2022-11-04T02:36:25;0.77;;;0.40;;
18887;SDS011;9576;47.792;9.628;2022-11-04T02:39:36;4.72;;;0.70;;
18887;SDS011;9576;47.792;9.628;2022-11-04T02:42:48;0.52;;;0.40;;
18887;SDS011;9576;47.792;9.628;2022-11-04T02:45:58;2.28;;;0.85;;
18887;SDS011;9576;47.792;9.628;2022-11-04T02:49:06;0.95;;;0.77;;
18887;SDS011;9576;47.792;9.628;2022-11-04T02:52:11;0.50;;;0.50;;
18887;SDS011;9576;47.792;9.628;2022-11-04T02:55:16;0.60;;;0.60;;
18887;SDS011;9576;47.792;9.628;2022-11-04T02:58:22;1.20;;;0.60;;
18887;SDS011;9576;47.792;9.628;2022-11-04T03:01:31;1.05;;;0.75;;
18887;SDS011;9576;47.792;9.628;2022-11-04T03:04:37;0.93;;;0.52;;
18887;SDS011;9576;47.792;9.628;2022-11-04T03:07:42;1.80;;;0.77;;
18887;SDS011;9576;47.792;9.628;2022-11-04T03:10:45;0.63;;;0.50;;
18887;SDS011;9576;47.792;9.628;2022-11-04T03:13:52;4.85;;;0.98;;
18887;SDS011;9576;47.792;9.628;2022-11-04T03:17:00;0.40;;;0.40;;
18887;SDS011;9576;47.792;9.628;2022-11-04T03:20:08;1.55;;;0.60;;
18887;SDS011;9576;47.792;9.628;2022-11-04T03:23:13;0.57;;;0.50;;
18887;SDS011;9576;47.792;9.628;2022-11-04T03:26:17;0.90;;;0.90;;
18887;SDS011;9576;47.792;9.628;2022-11-04T03:29:24;0.75;;;0.70;;
18887;SDS011;9576;47.792;9.628;2022-11-04T03:32:32;0.95;;;0.80;;
18887;SDS011;9576;47.792;9.628;2022-11-04T03:35:40;2.33;;;0.60;;
18887;SDS011;9576;47.792;9.628;2022-11-04T03:38:42;1.17;;;0.68;;
18887;SDS011;9576;47.792;9.628;2022-11-04T03:41:45;0.98;;;0.60;;
18887;SDS011;9576;47.792;9.628;2022-11-04T03:44:49;1.40;;;0.68;;
18887;SDS011;9576;47.792;9.628;2022-11-04T03:47:54;0.67;;;0.50;;
18887;SDS011;9576;47.792;9.628;2022-11-04T03:54:00;0.75;;;0.60;;
18887;SDS011;9576;47.792;9.628;2022-11-04T03:57:09;0.68;;;0.57;;
18887;SDS011;9576;47.792;9.628;2022-11-04T04:00:28;4.13;;;0.80;;
18887;SDS011;9576;47.792;9.628;2022-11-04T04:03:38;1.08;;;0.98;;
18887;SDS011;9576;47.792;9.628;2022-11-04T04:06:43;2.00;;;0.57;;
18887;SDS011;9576;47.792;9.628;2022-11-04T04:09:47;1.27;;;0.60;;
18887;SDS011;9576;47.792;9.628;2022-11-04T04:12:56;1.08;;;0.63;;
18887;SDS011;9576;47.792;9.628;2022-11-04T04:16:02;2.17;;;0.80;;
18887;SDS011;9576;47.792;9.628;2022-11-04T04:19:10;0.50;;;0.50;;
18887;SDS011;9576;47.792;9.628;2022-11-04T04:22:16;1.23;;;0.47;;
18887;SDS011;9576;47.792;9.628;2022-11-04T04:25:20;2.78;;;0.88;;
18887;SDS011;9576;47.792;9.628;2022-11-04T04:28:43;4.20;;;1.25;;
18887;SDS011;9576;47.792;9.628;2022-11-04T04:31:47;1.02;;;0.90;;
18887;SDS011;9576;47.792;9.628;2022-11-04T04:34:51;1.15;;;0.68;;
18887;SDS011;9576;47.792;9.628;2022-11-04T04:38:16;1.25;;;0.77;;
18887;SDS011;9576;47.792;9.628;2022-11-04T04:41:38;1.55;;;0.80;;
18887;SDS011;9576;47.792;9.628;2022-11-04T04:44:57;1.30;;;0.85;;
18887;SDS011;9576;47.792;9.628;2022-11-04T04:48:02;1.40;;;0.65;;
18887;SDS011;9576;47.792;9.628;2022-11-04T04:51:06;1.38;;;0.80;;
18887;SDS011;9576;47.792;9.628;2022-11-04T04:54:09;1.50;;;1.17;;
18887;SDS011;9576;47.792;9.628;2022-11-04T04:57:10;1.83;;;1.10;;
18887;SDS011;9576;47.792;9.628;2022-11-04T05:00:13;2.15;;;0.90;;
18887;SDS011;9576;47.792;9.628;2022-11-04T05:03:16;1.08;;;0.75;;
18887;SDS011;9576;47.792;9.628;2022-11-04T05:06:20;1.98;;;1.08;;
18887;SDS011;9576;47.792;9.628;2022-11-04T05:09:22;5.97;;;0.70;;
18887;SDS011;9576;47.792;9.628;2022-11-04T05:12:23;1.05;;;0.77;;
18887;SDS011;9576;47.792;9.628;2022-11-04T05:15:45;0.73;;;0.73;;
18887;SDS011;9576;47.792;9.628;2022-11-04T05:18:47;1.08;;;0.55;;
18887;SDS011;9576;47.792;9.628;2022-11-04T05:21:53;10.50;;;0.93;;
18887;SDS011;9576;47.792;9.628;2022-11-04T05:24:55;7.65;;;0.77;;
18887;SDS011;9576;47.792;9.628;2022-11-04T05:27:58;1.58;;;0.75;;
18887;SDS011;9576;47.792;9.628;2022-11-04T05:31:01;1.75;;;0.50;;
18887;SDS011;9576;47.792;9.628;2022-11-04T05:34:04;2.20;;;0.82;;
18887;SDS011;9576;47.792;9.628;2022-11-04T05:37:07;0.82;;;0.65;;
18887;SDS011;9576;47.792;9.628;2022-11-04T05:40:10;0.55;;;0.43;;
18887;SDS011;9576;47.792;9.628;2022-11-04T05:43:12;6.65;;;1.23;;
18887;SDS011;9576;47.792;9.628;2022-11-04T05:46:14;1.75;;;1.02;;
18887;SDS011;9576;47.792;9.628;2022-11-04T05:49:16;1.35;;;0.88;;
18887;SDS011;9576;47.792;9.628;2022-11-04T05:52:19;2.95;;;0.65;;
18887;SDS011;9576;47.792;9.628;2022-11-04T05:55:21;1.63;;;0.77;;
18887;SDS011;9576;47.792;9.628;2022-11-04T05:58:23;5.63;;;0.85;;
18887;SDS011;9576;47.792;9.628;2022-11-04T06:01:27;1.58;;;0.90;;
18887;SDS011;9576;47.792;9.628;2022-11-04T06:04:30;1.15;;;0.93;;
18887;SDS011;9576;47.792;9.628;2022-11-04T06:07:34;0.80;;;0.75;;
18887;SDS011;9576;47.792;9.628;2022-11-04T06:10:36;2.67;;;1.10;;
18887;SDS011;9576;47.792;9.628;2022-11-04T06:13:38;2.03;;;0.93;;
18887;SDS011;9576;47.792;9.628;2022-11-04T06:16:39;10.27;;;1.08;;
18887;SDS011;9576;47.792;9.628;2022-11-04T06:19:41;2.58;;;1.13;;
18887;SDS011;9576;47.792;9.628;2022-11-04T06:22:45;0.95;;;0.65;;
18887;SDS011;9576;47.792;9.628;2022-11-04T06:25:46;4.97;;;0.77;;
18887;SDS011;9576;47.792;9.628;2022-11-04T06:28:49;7.50;;;0.90;;
18887;SDS011;9576;47.792;9.628;2022-11-04T06:31:51;16.23;;;1.58;;
18887;SDS011;9576;47.792;9.628;2022-11-04T06:34:53;4.90;;;1.13;;
18887;SDS011;9576;47.792;9.628;2022-11-04T06:37:56;4.72;;;1.50;;
18887;SDS011;9576;47.792;9.628;2022-11-04T06:40:58;7.40;;;1.83;;
18887;SDS011;9576;47.792;9.628;2022-11-04T06:44:00;1.15;;;0.90;;
18887;SDS011;9576;47.792;9.628;2022-11-04T06:47:02;1.65;;;1.08;;
18887;SDS011;9576;47.792;9.628;2022-11-04T06:50:04;0.50;;;0.50;;
18887;SDS011;9576;47.792;9.628;2022-11-04T06:53:08;3.53;;;0.95;;
18887;SDS011;9576;47.792;9.628;2022-11-04T06:56:10;2.10;;;1.25;;
18887;SDS011;9576;47.792;9.628;2022-11-04T06:59:13;1.23;;;0.90;;
18887;SDS011;9576;47.792;9.628;2022-11-04T07:02:17;4.15;;;1.35;;
18887;SDS011;9576;47.792;9.628;2022-11-04T07:05:18;0.45;;;0.45;;
18887;SDS011;9576;47.792;9.628;2022-11-04T07:08:22;1.27;;;0.65;;
18887;SDS011;9576;47.792;9.628;2022-11-04T07:11:24;3.20;;;0.88;;
18887;SDS011;9576;47.792;9.628;2022-11-04T07:14:28;3.83;;;1.10;;
18887;SDS011;9576;47.792;9.628;2022-11-04T07:17:30;7.65;;;1.35;;
18887;SDS011;9576;47.792;9.628;2022-11-04T07:20:32;2.42;;;1.35;;
18887;SDS011;9576;47.792;9.628;2022-11-04T07:23:37;2.97;;;1.40;;
18887;SDS011;9576;47.792;9.628;2022-11-04T07:26:39;2.40;;;1.40;;
18887;SDS011;9576;47.792;9.628;2022-11-04T07:29:42;12.18;;;6.57;;
18887;SDS011;9576;47.792;9.628;2022-11-04T07:32:44;26.92;;;11.00;;
18887;SDS011;9576;47.792;9.628;2022-11-04T07:35:46;4.53;;;2.50;;
18887;SDS011;9576;47.792;9.628;2022-11-04T07:38:49;11.60;;;2.97;;
18887;SDS011;9576;47.792;9.628;2022-11-04T07:41:51;3.50;;;2.30;;
18887;SDS011;9576;47.792;9.628;2022-11-04T07:44:53;7.47;;;1.15;;
18887;SDS011;9576;47.792;9.628;2022-11-04T07:47:55;1.55;;;1.25;;
18887;SDS011;9576;47.792;9.628;2022-11-04T07:50:58;21.27;;;1.75;;
18887;SDS011;9576;47.792;9.628;2022-11-04T07:54:02;4.50;;;1.23;;
18887;SDS011;9576;47.792;9.628;2022-11-04T07:57:04;4.15;;;1.20;;
18887;SDS011;9576;47.792;9.628;2022-11-04T08:00:06;10.20;;;1.60;;
18887;SDS011;9576;47.792;9.628;2022-11-04T08:03:10;0.88;;;0.70;;
18887;SDS011;9576;47.792;9.628;2022-11-04T08:06:13;3.58;;;1.17;;
18887;SDS011;9576;47.792;9.628;2022-11-04T08:09:16;7.20;;;1.15;;
18887;SDS011;9576;47.792;9.628;2022-11-04T08:12:18;5.07;;;1.75;;
18887;SDS011;9576;47.792;9.628;2022-11-04T08:15:22;1.55;;;1.27;;
18887;SDS011;9576;47.792;9.628;2022-11-04T08:18:24;3.22;;;1.33;;
18887;SDS011;9576;47.792;9.628;2022-11-04T08:21:26;2.47;;;1.33;;
18887;SDS011;9576;47.792;9.628;2022-11-04T08:24:30;5.55;;;2.55;;
18887;SDS011;9576;47.792;9.628;2022-11-04T08:27:34;1.02;;;0.90;;
18887;SDS011;9576;47.792;9.628;2022-11-04T08:30:36;7.73;;;1.20;;
18887;SDS011;9576;47.792;9.628;2022-11-04T08:33:38;3.03;;;0.88;;
18887;SDS011;9576;47.792;9.628;2022-11-04T08:36:40;7.88;;;1.10;;
18887;SDS011;9576;47.792;9.628;2022-11-04T08:39:44;5.40;;;1.05;;
18887;SDS011;9576;47.792;9.628;2022-11-04T08:42:46;1.48;;;0.98;;
18887;SDS011;9576;47.792;9.628;2022-11-04T08:45:48;2.85;;;1.52;;
18887;SDS011;9576;47.792;9.628;2022-11-04T08:48:50;1.67;;;1.27;;
18887;SDS011;9576;47.792;9.628;2022-11-04T08:51:51;2.63;;;1.23;;
18887;SDS011;9576;47.792;9.628;2022-11-04T08:54:57;5.70;;;1.42;;
18887;SDS011;9576;47.792;9.628;2022-11-04T08:58:00;4.47;;;1.55;;
18887;SDS011;9576;47.792;9.628;2022-11-04T09:01:02;1.50;;;1.15;;
18887;SDS011;9576;47.792;9.628;2022-11-04T09:04:04;7.75;;;0.80;;
18887;SDS011;9576;47.792;9.628;2022-11-04T09:07:07;6.63;;;1.55;;
18887;SDS011;9576;47.792;9.628;2022-11-04T09:10:10;2.60;;;1.20;;
18887;SDS011;9576;47.792;9.628;2022-11-04T09:13:12;3.03;;;1.48;;
18887;SDS011;9576;47.792;9.628;2022-11-04T09:16:15;3.25;;;1.80;;
18887;SDS011;9576;47.792;9.628;2022-11-04T09:19:17;1.75;;;1.00;;
18887;SDS011;9576;47.792;9.628;2022-11-04T09:22:19;1.33;;;0.90;;
18887;SDS011;9576;47.792;9.628;2022-11-04T09:25:22;1.85;;;0.95;;
18887;SDS011;9576;47.792;9.628;2022-11-04T09:28:24;1.38;;;1.02;;
18887;SDS011;9576;47.792;9.628;2022-11-04T09:31:27;2.75;;;1.05;;
18887;SDS011;9576;47.792;9.628;2022-11-04T09:34:31;2.72;;;0.80;;
18887;SDS011;9576;47.792;9.628;2022-11-04T09:37:32;1.77;;;0.90;;
18887;SDS011;9576;47.792;9.628;2022-11-04T09:40:36;10.60;;;1.45;;
18887;SDS011;9576;47.792;9.628;2022-11-04T09:43:41;3.22;;;1.70;;
18887;SDS011;9576;47.792;9.628;2022-11-04T09:46:51;8.07;;;3.75;;
18887;SDS011;9576;47.792;9.628;2022-11-04T09:49:55;8.20;;;2.13;;
18887;SDS011;9576;47.792;9.628;2022-11-04T09:53:00;3.50;;;1.63;;
18887;SDS011;9576;47.792;9.628;2022-11-04T09:56:09;13.43;;;2.20;;
18887;SDS011;9576;47.792;9.628;2022-11-04T09:59:18;3.08;;;1.60;;
18887;SDS011;9576;47.792;9.628;2022-11-04T10:05:56;3.85;;;1.25;;
18887;SDS011;9576;47.792;9.628;2022-11-04T10:09:15;2.25;;;1.42;;
18887;SDS011;9576;47.792;9.628;2022-11-04T10:12:47;5.45;;;1.38;;
18887;SDS011;9576;47.792;9.628;2022-11-04T10:16:15;2.25;;;1.83;;
18887;SDS011;9576;47.792;9.628;2022-11-04T10:19:37;2.13;;;1.27;;
18887;SDS011;9576;47.792;9.628;2022-11-04T10:22:50;2.35;;;1.35;;
18887;SDS011;9576;47.792;9.628;2022-11-04T10:25:59;1.40;;;0.98;;
18887;SDS011;9576;47.792;9.628;2022-11-04T10:29:10;1.35;;;1.17;;
18887;SDS011;9576;47.792;9.628;2022-11-04T10:32:16;3.13;;;1.40;;
18887;SDS011;9576;47.792;9.628;2022-11-04T10:35:24;7.78;;;2.10;;
18887;SDS011;9576;47.792;9.628;2022-11-04T10:38:33;3.20;;;1.20;;
18887;SDS011;9576;47.792;9.628;2022-11-04T10:41:39;2.25;;;1.30;;
18887;SDS011;9576;47.792;9.628;2022-11-04T10:44:42;11.32;;;1.50;;
18887;SDS011;9576;47.792;9.628;2022-11-04T10:50:52;4.05;;;0.82;;
18887;SDS011;9576;47.792;9.628;2022-11-04T10:53:57;1.92;;;1.10;;
18887;SDS011;9576;47.792;9.628;2022-11-04T10:57:01;2.33;;;1.10;;
18887;SDS011;9576;47.792;9.628;2022-11-04T11:00:05;4.13;;;1.45;;
18887;SDS011;9576;47.792;9.628;2022-11-04T11:06:30;1.73;;;1.10;;
18887;SDS011;9576;47.792;9.628;2022-11-04T11:09:34;2.00;;;1.33;;
18887;SDS011;9576;47.792;9.628;2022-11-04T11:12:37;10.35;;;1.30;;
18887;SDS011;9576;47.792;9.628;2022-11-04T11:15:51;3.47;;;1.52;;
18887;SDS011;9576;47.792;9.628;2022-11-04T11:19:13;5.55;;;0.80;;
18887;SDS011;9576;47.792;9.628;2022-11-04T11:22:27;2.47;;;1.05;;
18887;SDS011;9576;47.792;9.628;2022-11-04T11:25:32;1.90;;;1.10;;
18887;SDS011;9576;47.792;9.628;2022-11-04T11:28:34;1.98;;;1.05;;
18887;SDS011;9576;47.792;9.628;2022-11-04T11:34:42;0.80;;;0.70;;
18887;SDS011;9576;47.792;9.628;2022-11-04T11:37:46;5.57;;;1.77;;
18887;SDS011;9576;47.792;9.628;2022-11-04T11:40:49;2.80;;;1.10;;
18887;SDS011;9576;47.792;9.628;2022-11-04T11:43:53;1.20;;;0.90;;
18887;SDS011;9576;47.792;9.628;2022-11-04T11:46:59;1.48;;;0.80;;
18887;SDS011;9576;47.792;9.628;2022-11-04T11:50:03;3.55;;;0.95;;
18887;SDS011;9576;47.792;9.628;2022-11-04T11:53:12;2.35;;;1.23;;
18887;SDS011;9576;47.792;9.628;2022-11-04T11:56:17;5.80;;;1.25;;
18887;SDS011;9576;47.792;9.628;2022-11-04T11:59:27;3.40;;;0.98;;
18887;SDS011;9576;47.792;9.628;2022-11-04T12:02:41;3.05;;;1.52;;
18887;SDS011;9576;47.792;9.628;2022-11-04T12:05:51;5.25;;;1.17;;
18887;SDS011;9576;47.792;9.628;2022-11-04T12:09:06;2.47;;;1.10;;
18887;SDS011;9576;47.792;9.628;2022-11-04T12:12:21;9.07;;;1.25;;
18887;SDS011;9576;47.792;9.628;2022-11-04T12:15:41;1.80;;;0.68;;
18887;SDS011;9576;47.792;9.628;2022-11-04T12:19:00;4.38;;;1.25;;
18887;SDS011;9576;47.792;9.628;2022-11-04T12:22:18;6.57;;;1.27;;
18887;SDS011;9576;47.792;9.628;2022-11-04T12:25:28;6.88;;;0.85;;
18887;SDS011;9576;47.792;9.628;2022-11-04T12:28:38;3.53;;;1.30;;
18887;SDS011;9576;47.792;9.628;2022-11-04T12:31:55;1.77;;;1.15;;
18887;SDS011;9576;47.792;9.628;2022-11-04T12:35:08;4.10;;;1.20;;
18887;SDS011;9576;47.792;9.628;2022-11-04T12:38:31;3.38;;;1.30;;
18887;SDS011;9576;47.792;9.628;2022-11-04T12:41:44;1.15;;;1.05;;
18887;SDS011;9576;47.792;9.628;2022-11-04T12:48:05;1.35;;;1.00;;
18887;SDS011;9576;47.792;9.628;2022-11-04T12:51:12;5.13;;;1.38;;
18887;SDS011;9576;47.792;9.628;2022-11-04T12:54:26;7.40;;;1.55;;
18887;SDS011;9576;47.792;9.628;2022-11-04T12:57:46;3.17;;;1.55;;
18887;SDS011;9576;47.792;9.628;2022-11-04T13:00:56;2.55;;;0.88;;
18887;SDS011;9576;47.792;9.628;2022-11-04T13:04:03;2.20;;;1.08;;
18887;SDS011;9576;47.792;9.628;2022-11-04T13:07:11;3.25;;;1.48;;
18887;SDS011;9576;47.792;9.628;2022-11-04T13:10:22;5.57;;;1.02;;
18887;SDS011;9576;47.792;9.628;2022-11-04T13:13:31;3.25;;;1.10;;
18887;SDS011;9576;47.792;9.628;2022-11-04T13:16:37;9.02;;;1.35;;
18887;SDS011;9576;47.792;9.628;2022-11-04T13:19:42;4.85;;;1.33;;
18887;SDS011;9576;47.792;9.628;2022-11-04T13:22:50;14.20;;;1.00;;
18887;SDS011;9576;47.792;9.628;2022-11-04T13:25:53;11.98;;;1.15;;
18887;SDS011;9576;47.792;9.628;2022-11-04T13:28:58;2.15;;;1.10;;
18887;SDS011;9576;47.792;9.628;2022-11-04T13:32:07;6.28;;;1.13;;
18887;SDS011;9576;47.792;9.628;2022-11-04T13:35:17;5.43;;;1.15;;
18887;SDS011;9576;47.792;9.628;2022-11-04T13:38:27;3.83;;;1.08;;
18887;SDS011;9576;47.792;9.628;2022-11-04T13:41:38;5.40;;;1.17;;
18887;SDS011;9576;47.792;9.628;2022-11-04T13:44:55;1.80;;;1.05;;
18887;SDS011;9576;47.792;9.628;2022-11-04T13:48:04;6.35;;;1.25;;
18887;SDS011;9576;47.792;9.628;2022-11-04T13:51:11;5.30;;;0.70;;
18887;SDS011;9576;47.792;9.628;2022-11-04T13:54:26;6.03;;;0.47;;
18887;SDS011;9576;47.792;9.628;2022-11-04T13:57:31;4.75;;;1.65;;
18887;SDS011;9576;47.792;9.628;2022-11-04T14:11:12;6.85;;;1.40;;
18887;SDS011;9576;47.792;9.628;2022-11-04T14:14:16;8.93;;;1.25;;
18887;SDS011;9576;47.792;9.628;2022-11-04T14:20:40;1.75;;;0.82;;
18887;SDS011;9576;47.792;9.628;2022-11-04T14:24:02;3.10;;;0.63;;
18887;SDS011;9576;47.792;9.628;2022-11-04T14:27:24;3.22;;;1.00;;
18887;SDS011;9576;47.792;9.628;2022-11-04T14:30:43;2.17;;;0.98;;
18887;SDS011;9576;47.792;9.628;2022-11-04T14:33:48;9.55;;;1.75;;
18887;SDS011;9576;47.792;9.628;2022-11-04T14:36:54;7.68;;;1.25;;
18887;SDS011;9576;47.792;9.628;2022-11-04T14:39:57;3.08;;;1.23;;
18887;SDS011;9576;47.792;9.628;2022-11-04T14:43:01;3.72;;;1.20;;
18887;SDS011;9576;47.792;9.628;2022-11-04T14:46:05;3.85;;;1.02;;
18887;SDS011;9576;47.792;9.628;2022-11-04T14:49:17;7.03;;;1.15;;
18887;SDS011;9576;47.792;9.628;2022-11-04T14:52:33;4.60;;;0.73;;
18887;SDS011;9576;47.792;9.628;2022-11-04T14:55:37;0.73;;;0.60;;
18887;SDS011;9576;47.792;9.628;2022-11-04T14:58:52;6.25;;;1.08;;
18887;SDS011;9576;47.792;9.628;2022-11-04T15:01:56;14.73;;;1.58;;
18887;SDS011;9576;47.792;9.628;2022-11-04T15:04:59;7.45;;;1.20;;
18887;SDS011;9576;47.792;9.628;2022-11-04T15:08:02;12.20;;;1.42;;
18887;SDS011;9576;47.792;9.628;2022-11-04T15:11:20;10.90;;;1.23;;
18887;SDS011;9576;47.792;9.628;2022-11-04T15:14:39;3.85;;;1.23;;
18887;SDS011;9576;47.792;9.628;2022-11-04T15:17:40;3.22;;;0.85;;
18887;SDS011;9576;47.792;9.628;2022-11-04T15:20:44;4.53;;;1.35;;
18887;SDS011;9576;47.792;9.628;2022-11-04T15:23:49;6.53;;;1.05;;
18887;SDS011;9576;47.792;9.628;2022-11-04T15:26:56;21.48;;;1.70;;
18887;SDS011;9576;47.792;9.628;2022-11-04T15:30:03;13.90;;;1.48;;
18887;SDS011;9576;47.792;9.628;2022-11-04T15:33:18;3.88;;;1.45;;
18887;SDS011;9576;47.792;9.628;2022-11-04T15:36:20;13.25;;;1.92;;
18887;SDS011;9576;47.792;9.628;2022-11-04T15:39:24;16.07;;;1.97;;
18887;SDS011;9576;47.792;9.628;2022-11-04T15:42:30;15.18;;;1.55;;
18887;SDS011;9576;47.792;9.628;2022-11-04T15:45:49;4.15;;;0.90;;
18887;SDS011;9576;47.792;9.628;2022-11-04T15:49:02;5.95;;;1.02;;
18887;SDS011;9576;47.792;9.628;2022-11-04T15:52:07;2.90;;;1.02;;
18887;SDS011;9576;47.792;9.628;2022-11-04T15:55:17;1.75;;;0.82;;
18887;SDS011;9576;47.792;9.628;2022-11-04T15:58:20;12.18;;;2.15;;
18887;SDS011;9576;47.792;9.628;2022-11-04T16:01:26;5.18;;;1.75;;
18887;SDS011;9576;47.792;9.628;2022-11-04T16:04:28;1.90;;;1.30;;
18887;SDS011;9576;47.792;9.628;2022-11-04T16:07:33;9.73;;;1.55;;
18887;SDS011;9576;47.792;9.628;2022-11-04T16:10:37;10.52;;;1.50;;
18887;SDS011;9576;47.792;9.628;2022-11-04T16:16:45;11.98;;;1.75;;
18887;SDS011;9576;47.792;9.628;2022-11-04T16:19:51;16.95;;;1.42;;
18887;SDS011;9576;47.792;9.628;2022-11-04T16:22:54;2.75;;;1.20;;
18887;SDS011;9576;47.792;9.628;2022-11-04T16:25:58;5.07;;;1.30;;
18887;SDS011;9576;47.792;9.628;2022-11-04T16:29:05;14.40;;;5.05;;
18887;SDS011;9576;47.792;9.628;2022-11-04T16:32:15;11.15;;;5.65;;
18887;SDS011;9576;47.792;9.628;2022-11-04T16:35:19;12.75;;;5.70;;
18887;SDS011;9576;47.792;9.628;2022-11-04T16:38:23;14.75;;;4.68;;
18887;SDS011;9576;47.792;9.628;2022-11-04T16:41:25;28.27;;;7.53;;
18887;SDS011;9576;47.792;9.628;2022-11-04T16:44:29;11.60;;;3.22;;
18887;SDS011;9576;47.792;9.628;2022-11-04T16:47:32;11.98;;;3.30;;
18887;SDS011;9576;47.792;9.628;2022-11-04T16:50:38;7.53;;;3.50;;
18887;SDS011;9576;47.792;9.628;2022-11-04T16:53:41;15.27;;;4.80;;
18887;SDS011;9576;47.792;9.628;2022-11-04T16:56:43;14.98;;;4.35;;
18887;SDS011;9576;47.792;9.628;2022-11-04T16:59:45;28.70;;;9.80;;
18887;SDS011;9576;47.792;9.628;2022-11-04T17:02:48;48.42;;;13.30;;
18887;SDS011;9576;47.792;9.628;2022-11-04T17:05:52;35.08;;;15.38;;
18887;SDS011;9576;47.792;9.628;2022-11-04T17:08:55;41.27;;;15.47;;
18887;SDS011;9576;47.792;9.628;2022-11-04T17:11:57;15.90;;;2.47;;
18887;SDS011;9576;47.792;9.628;2022-11-04T17:14:59;8.57;;;1.50;;
18887;SDS011;9576;47.792;9.628;2022-11-04T17:18:02;4.38;;;1.00;;
18887;SDS011;9576;47.792;9.628;2022-11-04T17:21:05;9.30;;;1.70;;
18887;SDS011;9576;47.792;9.628;2022-11-04T17:24:08;10.73;;;1.57;;
18887;SDS011;9576;47.792;9.628;2022-11-04T17:27:11;5.07;;;1.70;;
18887;SDS011;9576;47.792;9.628;2022-11-04T17:30:13;3.28;;;1.88;;
18887;SDS011;9576;47.792;9.628;2022-11-04T17:33:17;3.00;;;1.55;;
18887;SDS011;9576;47.792;9.628;2022-11-04T17:36:20;3.97;;;1.95;;
18887;SDS011;9576;47.792;9.628;2022-11-04T17:39:23;4.28;;;2.40;;
18887;SDS011;9576;47.792;9.628;2022-11-04T17:42:25;5.43;;;2.17;;
18887;SDS011;9576;47.792;9.628;2022-11-04T17:45:44;4.57;;;1.75;;
18887;SDS011;9576;47.792;9.628;2022-11-04T17:49:09;6.05;;;2.33;;
18887;SDS011;9576;47.792;9.628;2022-11-04T17:52:12;8.32;;;2.03;;
18887;SDS011;9576;47.792;9.628;2022-11-04T17:55:14;6.03;;;2.17;;
18887;SDS011;9576;47.792;9.628;2022-11-04T17:58:16;5.60;;;1.85;;
18887;SDS011;9576;47.792;9.628;2022-11-04T18:01:19;9.63;;;1.75;;
18887;SDS011;9576;47.792;9.628;2022-11-04T18:04:24;6.47;;;3.00;;
18887;SDS011;9576;47.792;9.628;2022-11-04T18:07:26;3.15;;;2.05;;
18887;SDS011;9576;47.792;9.628;2022-11-04T18:10:28;4.78;;;2.50;;
18887;SDS011;9576;47.792;9.628;2022-11-04T18:13:30;7.85;;;2.60;;
18887;SDS011;9576;47.792;9.628;2022-11-04T18:16:32;7.68;;;3.58;;
18887;SDS011;9576;47.792;9.628;2022-11-04T18:19:35;15.68;;;3.97;;
18887;SDS011;9576;47.792;9.628;2022-11-04T18:22:37;8.98;;;3.50;;
18887;SDS011;9576;47.792;9.628;2022-11-04T18:25:39;8.15;;;2.65;;
18887;SDS011;9576;47.792;9.628;2022-11-04T18:28:42;4.65;;;2.30;;
18887;SDS011;9576;47.792;9.628;2022-11-04T18:31:44;4.07;;;2.35;;
18887;SDS011;9576;47.792;9.628;2022-11-04T18:34:48;4.60;;;2.28;;
18887;SDS011;9576;47.792;9.628;2022-11-04T18:40:52;4.32;;;2.53;;
18887;SDS011;9576;47.792;9.628;2022-11-04T18:43:54;7.20;;;2.83;;
18887;SDS011;9576;47.792;9.628;2022-11-04T18:46:56;12.90;;;4.15;;
18887;SDS011;9576;47.792;9.628;2022-11-04T18:49:59;11.98;;;4.45;;
18887;SDS011;9576;47.792;9.628;2022-11-04T18:53:01;9.25;;;2.88;;
18887;SDS011;9576;47.792;9.628;2022-11-04T18:56:04;5.75;;;2.55;;
18887;SDS011;9576;47.792;9.628;2022-11-04T18:59:07;11.95;;;3.30;;
18887;SDS011;9576;47.792;9.628;2022-11-04T19:02:11;14.40;;;3.28;;
18887;SDS011;9576;47.792;9.628;2022-11-04T19:05:20;7.07;;;2.90;;
18887;SDS011;9576;47.792;9.628;2022-11-04T19:08:22;3.67;;;2.15;;
18887;SDS011;9576;47.792;9.628;2022-11-04T19:11:25;15.90;;;2.20;;
18887;SDS011;9576;47.792;9.628;2022-11-04T19:14:29;5.72;;;2.65;;
18887;SDS011;9576;47.792;9.628;2022-11-04T19:17:31;5.20;;;2.65;;
18887;SDS011;9576;47.792;9.628;2022-11-04T19:20:36;4.05;;;2.30;;
18887;SDS011;9576;47.792;9.628;2022-11-04T19:23:38;6.70;;;2.33;;
18887;SDS011;9576;47.792;9.628;2022-11-04T19:26:40;4.30;;;2.60;;
18887;SDS011;9576;47.792;9.628;2022-11-04T19:29:42;6.75;;;3.20;;
18887;SDS011;9576;47.792;9.628;2022-11-04T19:32:44;5.70;;;2.97;;
18887;SDS011;9576;47.792;9.628;2022-11-04T19:35:51;6.68;;;3.38;;